createdAt,value
2018-06-30T00:00:09.415Z,7.62
2018-06-30T00:00:43.084Z,5.00
2018-06-30T00:01:16.871Z,3.05
2018-06-30T00:01:51.142Z,4.45
2018-06-30T00:02:24.601Z,3.27
2018-06-30T00:02:57.823Z,3.37
2018-06-30T00:03:37.580Z,4.28
2018-06-30T00:04:12.386Z,4.45
2018-06-30T00:04:50.505Z,5.08
2018-06-30T00:05:23.715Z,5.00
2018-06-30T00:05:56.789Z,3.40
2018-06-30T00:06:30.093Z,3.30
2018-06-30T00:07:03.348Z,2.42
2018-06-30T00:07:36.490Z,3.40
2018-06-30T00:08:09.899Z,2.60
2018-06-30T00:08:43.010Z,2.50
2018-06-30T00:09:16.075Z,2.22
2018-06-30T00:09:49.471Z,2.50
2018-06-30T00:10:29.169Z,3.35
2018-06-30T00:11:02.274Z,3.05
2018-06-30T00:11:36.045Z,9.55
2018-06-30T00:12:09.277Z,6.12
2018-06-30T00:12:42.515Z,4.75
2018-06-30T00:13:15.674Z,17.40
2018-06-30T00:13:49.427Z,3.40
2018-06-30T00:14:22.554Z,11.57
2018-06-30T00:14:55.670Z,5.58
2018-06-30T00:15:29.546Z,3.33
2018-06-30T00:16:02.623Z,3.90
2018-06-30T00:16:35.713Z,17.85
2018-06-30T00:17:09.076Z,7.10
2018-06-30T00:17:42.179Z,9.93
2018-06-30T00:18:15.516Z,8.10
2018-06-30T00:18:48.601Z,6.65
2018-06-30T00:19:21.792Z,11.70
2018-06-30T00:19:55.093Z,7.78
2018-06-30T00:20:28.211Z,5.40
2018-06-30T00:21:01.367Z,4.58
2018-06-30T00:21:34.668Z,4.55
2018-06-30T00:22:07.986Z,3.50
2018-06-30T00:22:41.179Z,2.40
2018-06-30T00:23:14.329Z,4.10
2018-06-30T00:23:47.737Z,2.90
2018-06-30T00:24:20.800Z,2.40
2018-06-30T00:24:53.895Z,3.47
2018-06-30T00:25:27.015Z,2.80
2018-06-30T00:26:00.768Z,2.37
2018-06-30T00:26:33.887Z,2.70
2018-06-30T00:27:12.522Z,2.45
2018-06-30T00:27:45.622Z,2.50
2018-06-30T00:28:18.786Z,2.35
2018-06-30T00:28:53.084Z,2.40
2018-06-30T00:29:26.168Z,2.10
2018-06-30T00:30:00.581Z,2.80
2018-06-30T00:30:33.952Z,2.85
2018-06-30T00:31:07.447Z,2.35
2018-06-30T00:31:40.634Z,2.40
2018-06-30T00:32:13.755Z,2.08
2018-06-30T00:32:46.979Z,2.60
2018-06-30T00:33:20.090Z,2.25
2018-06-30T00:33:53.203Z,2.08
2018-06-30T00:34:26.827Z,3.10
2018-06-30T00:34:59.928Z,4.08
2018-06-30T00:35:33.656Z,2.70
2018-06-30T00:36:06.752Z,2.30
2018-06-30T00:36:39.835Z,2.65
2018-06-30T00:37:12.964Z,2.30
2018-06-30T00:37:46.227Z,2.30
2018-06-30T00:38:19.681Z,2.15
2018-06-30T00:38:52.867Z,1.82
2018-06-30T00:39:25.980Z,2.20
2018-06-30T00:39:59.331Z,1.77
2018-06-30T00:40:32.458Z,2.02
2018-06-30T00:41:05.622Z,1.85
2018-06-30T00:41:38.784Z,1.87
2018-06-30T00:42:11.932Z,1.90
2018-06-30T00:42:45.119Z,1.77
2018-06-30T00:43:18.628Z,2.37
2018-06-30T00:43:52.161Z,1.85
2018-06-30T00:44:25.283Z,1.80
2018-06-30T00:44:58.439Z,1.50
2018-06-30T00:45:31.535Z,1.90
2018-06-30T00:46:04.630Z,2.10
2018-06-30T00:46:37.725Z,1.70
2018-06-30T00:47:11.292Z,2.08
2018-06-30T00:47:44.413Z,2.30
2018-06-30T00:48:17.484Z,2.20
2018-06-30T00:48:50.683Z,1.90
2018-06-30T00:49:24.205Z,1.70
2018-06-30T00:49:57.305Z,2.15
2018-06-30T00:50:30.463Z,1.75
2018-06-30T00:51:04.148Z,2.22
2018-06-30T00:51:37.247Z,1.57
2018-06-30T00:52:10.356Z,1.77
2018-06-30T00:52:43.588Z,1.70
2018-06-30T00:53:17.072Z,2.02
2018-06-30T00:53:50.223Z,2.37
2018-06-30T00:54:23.428Z,2.25
2018-06-30T00:54:56.522Z,2.58
2018-06-30T00:55:30.091Z,2.02
2018-06-30T00:56:03.254Z,2.30
2018-06-30T00:56:37.407Z,2.45
2018-06-30T00:57:10.530Z,2.08
2018-06-30T00:57:43.703Z,2.50
2018-06-30T00:58:17.101Z,1.90
2018-06-30T00:58:50.380Z,2.00
2018-06-30T00:59:23.481Z,2.50
2018-06-30T00:59:56.578Z,1.70
2018-06-30T01:00:29.715Z,1.60
2018-06-30T01:01:02.830Z,1.70
2018-06-30T01:01:35.947Z,1.60
2018-06-30T01:02:09.080Z,2.10
2018-06-30T01:02:42.306Z,2.20
2018-06-30T01:03:15.418Z,1.85
2018-06-30T01:03:48.538Z,2.00
2018-06-30T01:04:21.859Z,1.50
2018-06-30T01:04:54.976Z,1.98
2018-06-30T01:05:28.082Z,2.10
2018-06-30T01:06:01.171Z,1.70
2018-06-30T01:06:34.567Z,1.75
2018-06-30T01:07:08.036Z,1.65
2018-06-30T01:07:41.189Z,1.57
2018-06-30T01:08:14.525Z,1.70
2018-06-30T01:08:47.608Z,1.82
2018-06-30T01:09:20.751Z,1.85
2018-06-30T01:09:53.861Z,2.05
2018-06-30T01:10:27.117Z,1.95
2018-06-30T01:11:00.655Z,1.90
2018-06-30T01:11:34.398Z,2.50
2018-06-30T01:12:07.535Z,2.60
2018-06-30T01:12:40.739Z,2.85
2018-06-30T01:13:13.933Z,2.72
2018-06-30T01:13:47.098Z,2.77
2018-06-30T01:14:20.296Z,2.60
2018-06-30T01:14:53.475Z,2.20
2018-06-30T01:15:26.548Z,2.80
2018-06-30T01:15:59.657Z,2.80
2018-06-30T01:16:32.961Z,2.47
2018-06-30T01:17:06.214Z,2.52
2018-06-30T01:17:39.300Z,2.22
2018-06-30T01:18:12.384Z,2.70
2018-06-30T01:18:45.748Z,3.00
2018-06-30T01:19:18.906Z,2.90
2018-06-30T01:19:52.085Z,2.83
2018-06-30T01:20:25.251Z,2.98
2018-06-30T01:20:58.357Z,3.08
2018-06-30T01:21:31.452Z,2.60
2018-06-30T01:22:04.814Z,2.60
2018-06-30T01:22:37.951Z,2.22
2018-06-30T01:23:11.156Z,2.00
2018-06-30T01:23:44.259Z,2.37
2018-06-30T01:24:17.333Z,1.85
2018-06-30T01:24:50.429Z,2.65
2018-06-30T01:25:23.542Z,2.30
2018-06-30T01:25:56.738Z,2.80
2018-06-30T01:26:30.205Z,2.80
2018-06-30T01:27:03.340Z,2.70
2018-06-30T01:27:36.503Z,2.37
2018-06-30T01:28:09.588Z,1.80
2018-06-30T01:28:42.710Z,2.25
2018-06-30T01:29:15.792Z,1.90
2018-06-30T01:29:48.920Z,2.00
2018-06-30T01:30:22.096Z,2.52
2018-06-30T01:30:55.360Z,2.92
2018-06-30T01:31:59.145Z,2.58
2018-06-30T01:32:32.246Z,2.30
2018-06-30T01:33:05.389Z,2.00
2018-06-30T01:33:38.506Z,2.05
2018-06-30T01:34:11.685Z,2.45
2018-06-30T01:34:45.044Z,1.85
2018-06-30T01:35:18.140Z,2.02
2018-06-30T01:35:51.579Z,2.37
2018-06-30T01:36:24.981Z,2.10
2018-06-30T01:36:58.088Z,1.80
2018-06-30T01:37:31.314Z,2.70
2018-06-30T01:38:04.410Z,2.08
2018-06-30T01:38:37.550Z,2.35
2018-06-30T01:39:11.795Z,2.00
2018-06-30T01:39:44.976Z,1.80
2018-06-30T01:40:18.055Z,2.50
2018-06-30T01:40:51.127Z,2.30
2018-06-30T01:41:24.258Z,2.20
2018-06-30T01:41:57.483Z,2.72
2018-06-30T01:42:30.554Z,3.40
2018-06-30T01:43:04.041Z,1.80
2018-06-30T01:43:37.195Z,2.85
2018-06-30T01:44:10.320Z,3.00
2018-06-30T01:44:43.428Z,2.05
2018-06-30T01:45:17.076Z,2.35
2018-06-30T01:45:50.255Z,2.65
2018-06-30T01:46:23.436Z,2.60
2018-06-30T01:46:57.022Z,2.30
2018-06-30T01:47:30.285Z,2.22
2018-06-30T01:48:03.581Z,2.75
2018-06-30T01:48:36.715Z,1.85
2018-06-30T01:49:09.820Z,2.37
2018-06-30T01:49:42.907Z,2.40
2018-06-30T01:50:16.271Z,2.60
2018-06-30T01:50:49.367Z,3.25
2018-06-30T01:51:22.668Z,2.65
2018-06-30T01:51:55.825Z,2.27
2018-06-30T01:52:29.107Z,2.50
2018-06-30T01:53:02.288Z,2.40
2018-06-30T01:53:35.345Z,2.42
2018-06-30T01:54:08.422Z,2.37
2018-06-30T01:54:41.823Z,2.15
2018-06-30T01:55:15.187Z,2.00
2018-06-30T01:55:48.265Z,1.90
2018-06-30T01:56:21.411Z,2.35
2018-06-30T01:56:55.053Z,1.70
2018-06-30T01:57:28.221Z,2.42
2018-06-30T01:58:01.323Z,3.08
2018-06-30T01:58:34.451Z,3.15
2018-06-30T01:59:07.548Z,2.90
2018-06-30T01:59:40.669Z,4.20
2018-06-30T02:00:13.793Z,2.80
2018-06-30T02:00:46.879Z,2.25
2018-06-30T02:01:19.995Z,2.67
2018-06-30T02:01:53.258Z,2.50
2018-06-30T02:02:26.507Z,2.33
2018-06-30T02:02:59.632Z,2.65
2018-06-30T02:03:32.914Z,2.60
2018-06-30T02:04:06.292Z,2.50
2018-06-30T02:04:39.533Z,2.15
2018-06-30T02:05:12.643Z,2.25
2018-06-30T02:05:45.878Z,1.95
2018-06-30T02:06:19.077Z,1.85
2018-06-30T02:06:52.541Z,1.95
2018-06-30T02:07:25.623Z,1.50
2018-06-30T02:07:58.736Z,1.60
2018-06-30T02:08:32.129Z,2.10
2018-06-30T02:09:06.735Z,1.50
2018-06-30T02:09:39.888Z,1.87
2018-06-30T02:10:13.010Z,1.92
2018-06-30T02:10:46.122Z,1.70
2018-06-30T02:11:19.210Z,1.57
2018-06-30T02:11:52.359Z,1.42
2018-06-30T02:12:25.419Z,1.50
2018-06-30T02:12:58.575Z,1.60
2018-06-30T02:13:31.707Z,1.57
2018-06-30T02:14:04.823Z,1.40
2018-06-30T02:14:38.222Z,2.20
2018-06-30T02:15:11.447Z,1.80
2018-06-30T02:15:44.629Z,1.87
2018-06-30T02:16:17.758Z,2.02
2018-06-30T02:16:51.004Z,2.17
2018-06-30T02:17:24.206Z,1.70
2018-06-30T02:17:57.300Z,1.60
2018-06-30T02:18:30.861Z,2.00
2018-06-30T02:19:04.348Z,1.67
2018-06-30T02:19:37.448Z,1.80
2018-06-30T02:20:50.290Z,1.75
2018-06-30T02:21:23.474Z,2.10
2018-06-30T02:21:56.584Z,2.08
2018-06-30T02:22:30.160Z,1.87
2018-06-30T02:23:03.349Z,1.87
2018-06-30T02:23:36.634Z,2.20
2018-06-30T02:24:09.790Z,2.35
2018-06-30T02:24:42.956Z,2.87
2018-06-30T02:25:16.064Z,2.45
2018-06-30T02:25:49.237Z,2.40
2018-06-30T02:26:22.389Z,1.40
2018-06-30T02:26:55.594Z,1.42
2018-06-30T02:27:29.106Z,2.33
2018-06-30T02:28:02.220Z,1.57
2018-06-30T02:28:35.433Z,1.20
2018-06-30T02:29:08.518Z,1.57
2018-06-30T02:29:41.629Z,1.60
2018-06-30T02:30:14.714Z,1.45
2018-06-30T02:30:47.838Z,1.70
2018-06-30T02:31:21.023Z,2.15
2018-06-30T02:31:54.153Z,1.62
2018-06-30T02:32:27.379Z,1.22
2018-06-30T02:33:00.661Z,1.27
2018-06-30T02:33:33.799Z,1.57
2018-06-30T02:34:07.603Z,1.20
2018-06-30T02:34:40.705Z,1.85
2018-06-30T02:35:13.809Z,1.52
2018-06-30T02:35:46.915Z,1.47
2018-06-30T02:36:20.345Z,1.50
2018-06-30T02:36:53.706Z,1.60
2018-06-30T02:37:26.807Z,2.25
2018-06-30T02:38:00.038Z,1.52
2018-06-30T02:38:33.177Z,1.50
2018-06-30T02:39:06.761Z,1.50
2018-06-30T02:39:39.774Z,1.55
2018-06-30T02:40:13.199Z,1.45
2018-06-30T02:40:46.371Z,1.65
2018-06-30T02:41:19.779Z,1.55
2018-06-30T02:41:53.552Z,1.57
2018-06-30T02:42:26.685Z,2.40
2018-06-30T02:43:00.233Z,2.22
2018-06-30T02:43:33.387Z,2.10
2018-06-30T02:44:06.566Z,2.20
2018-06-30T02:44:39.716Z,2.20
2018-06-30T02:45:12.868Z,1.95
2018-06-30T02:45:45.968Z,1.75
2018-06-30T02:46:19.073Z,1.80
2018-06-30T02:46:52.189Z,2.00
2018-06-30T02:47:25.504Z,1.65
2018-06-30T02:47:58.617Z,1.57
2018-06-30T02:48:31.734Z,1.50
2018-06-30T02:49:05.155Z,1.85
2018-06-30T02:49:38.236Z,1.70
2018-06-30T02:50:11.527Z,1.70
2018-06-30T02:50:44.607Z,1.70
2018-06-30T02:51:17.951Z,1.55
2018-06-30T02:51:51.448Z,1.60
2018-06-30T02:52:24.558Z,1.30
2018-06-30T02:52:57.730Z,1.55
2018-06-30T02:53:30.784Z,1.42
2018-06-30T02:54:03.879Z,1.40
2018-06-30T02:54:37.220Z,1.65
2018-06-30T02:55:10.316Z,1.70
2018-06-30T02:55:43.441Z,1.45
2018-06-30T02:56:16.553Z,1.40
2018-06-30T02:56:49.813Z,1.95
2018-06-30T02:57:22.918Z,1.95
2018-06-30T02:57:56.013Z,1.60
2018-06-30T02:58:29.198Z,1.60
2018-06-30T02:59:02.408Z,1.60
2018-06-30T02:59:35.880Z,1.60
2018-06-30T03:00:09.079Z,2.08
2018-06-30T03:00:42.173Z,1.82
2018-06-30T03:01:15.288Z,1.82
2018-06-30T03:01:48.674Z,1.52
2018-06-30T03:02:22.076Z,1.55
2018-06-30T03:02:55.255Z,1.50
2018-06-30T03:03:28.416Z,1.30
2018-06-30T03:04:01.479Z,1.62
2018-06-30T03:04:34.573Z,1.32
2018-06-30T03:05:07.738Z,1.85
2018-06-30T03:05:40.862Z,1.30
2018-06-30T03:06:13.937Z,1.40
2018-06-30T03:06:47.031Z,1.62
2018-06-30T03:07:20.497Z,1.50
2018-06-30T03:07:53.621Z,1.57
2018-06-30T03:08:27.086Z,1.47
2018-06-30T03:09:00.138Z,1.72
2018-06-30T03:09:33.687Z,1.90
2018-06-30T03:10:06.888Z,2.47
2018-06-30T03:10:40.091Z,2.37
2018-06-30T03:11:13.222Z,2.30
2018-06-30T03:11:46.332Z,1.65
2018-06-30T03:12:19.588Z,1.30
2018-06-30T03:12:53.048Z,1.62
2018-06-30T03:13:26.142Z,1.35
2018-06-30T03:13:59.260Z,1.87
2018-06-30T03:14:32.919Z,1.60
2018-06-30T03:15:06.017Z,1.20
2018-06-30T03:15:39.281Z,1.65
2018-06-30T03:16:16.777Z,2.08
2018-06-30T03:16:49.916Z,2.00
2018-06-30T03:17:23.116Z,2.10
2018-06-30T03:17:56.223Z,1.85
2018-06-30T03:18:29.586Z,1.70
2018-06-30T03:19:02.725Z,2.20
2018-06-30T03:19:35.957Z,2.70
2018-06-30T03:20:09.086Z,1.80
2018-06-30T03:20:42.197Z,1.67
2018-06-30T03:21:15.281Z,1.47
2018-06-30T03:21:48.583Z,2.17
2018-06-30T03:22:21.677Z,2.33
2018-06-30T03:22:55.316Z,1.87
2018-06-30T03:23:29.016Z,1.35
2018-06-30T03:24:02.131Z,1.55
2018-06-30T03:24:35.244Z,1.30
2018-06-30T03:25:08.338Z,1.65
2018-06-30T03:25:41.447Z,1.50
2018-06-30T03:26:14.606Z,1.52
2018-06-30T03:26:48.089Z,1.40
2018-06-30T03:27:21.251Z,1.70
2018-06-30T03:27:54.354Z,1.35
2018-06-30T03:28:27.474Z,1.47
2018-06-30T03:29:00.588Z,1.27
2018-06-30T03:29:33.707Z,1.60
2018-06-30T03:30:06.830Z,1.52
2018-06-30T03:30:39.954Z,1.65
2018-06-30T03:31:13.321Z,1.40
2018-06-30T03:31:46.555Z,1.62
2018-06-30T03:32:19.670Z,1.45
2018-06-30T03:32:52.770Z,1.40
2018-06-30T03:33:25.901Z,1.40
2018-06-30T03:33:58.968Z,1.65
2018-06-30T03:34:32.273Z,1.67
2018-06-30T03:35:11.932Z,1.40
2018-06-30T03:35:45.082Z,1.40
2018-06-30T03:36:18.188Z,2.15
2018-06-30T03:36:51.301Z,1.80
2018-06-30T03:37:24.674Z,1.95
2018-06-30T03:37:58.036Z,1.17
2018-06-30T03:38:31.143Z,1.50
2018-06-30T03:39:06.388Z,1.80
2018-06-30T03:39:39.520Z,1.77
2018-06-30T03:40:12.639Z,1.42
2018-06-30T03:40:45.720Z,1.20
2018-06-30T03:41:18.958Z,1.50
2018-06-30T03:41:52.239Z,1.80
2018-06-30T03:42:25.384Z,1.00
2018-06-30T03:42:58.531Z,1.30
2018-06-30T03:43:31.725Z,1.17
2018-06-30T03:44:05.194Z,1.55
2018-06-30T03:44:38.501Z,1.20
2018-06-30T03:45:11.614Z,1.55
2018-06-30T03:45:44.733Z,1.82
2018-06-30T03:46:17.950Z,1.75
2018-06-30T03:46:51.115Z,2.30
2018-06-30T03:47:24.298Z,1.92
2018-06-30T03:47:57.787Z,1.20
2018-06-30T03:48:31.247Z,1.30
2018-06-30T03:49:04.357Z,1.62
2018-06-30T03:49:37.607Z,1.22
2018-06-30T03:50:10.849Z,1.27
2018-06-30T03:50:43.947Z,1.20
2018-06-30T03:51:17.123Z,1.62
2018-06-30T03:51:50.243Z,1.60
2018-06-30T03:52:23.375Z,1.45
2018-06-30T03:52:56.802Z,1.75
2018-06-30T03:53:29.935Z,2.10
2018-06-30T03:54:03.072Z,2.10
2018-06-30T03:54:36.233Z,1.67
2018-06-30T03:55:09.332Z,1.40
2018-06-30T03:55:42.494Z,1.50
2018-06-30T03:56:15.772Z,1.50
2018-06-30T03:56:48.895Z,1.40
2018-06-30T03:57:22.019Z,1.27
2018-06-30T03:57:55.285Z,1.40
2018-06-30T03:58:28.543Z,1.40
2018-06-30T03:59:01.724Z,1.40
2018-06-30T03:59:34.826Z,1.12
2018-06-30T04:00:08.609Z,1.30
2018-06-30T04:00:41.723Z,1.07
2018-06-30T04:01:14.968Z,1.12
2018-06-30T04:01:48.450Z,1.35
2018-06-30T04:02:21.662Z,1.32
2018-06-30T04:02:54.736Z,1.55
2018-06-30T04:03:27.960Z,1.47
2018-06-30T04:04:01.072Z,1.50
2018-06-30T04:04:34.190Z,1.40
2018-06-30T04:05:07.545Z,1.40
2018-06-30T04:05:40.668Z,1.80
2018-06-30T04:06:13.807Z,1.17
2018-06-30T04:06:47.066Z,1.10
2018-06-30T04:07:20.357Z,1.25
2018-06-30T04:07:53.469Z,1.52
2018-06-30T04:08:26.563Z,1.20
2018-06-30T04:08:59.783Z,1.40
2018-06-30T04:09:32.938Z,1.47
2018-06-30T04:10:06.104Z,1.80
2018-06-30T04:10:39.208Z,1.50
2018-06-30T04:11:12.302Z,1.60
2018-06-30T04:11:45.404Z,1.60
2018-06-30T04:12:18.636Z,2.05
2018-06-30T04:12:51.767Z,1.77
2018-06-30T04:13:24.894Z,1.85
2018-06-30T04:13:58.081Z,1.75
2018-06-30T04:14:31.256Z,2.15
2018-06-30T04:15:05.378Z,2.05
2018-06-30T04:15:38.529Z,1.60
2018-06-30T04:16:11.826Z,1.45
2018-06-30T04:16:45.171Z,1.30
2018-06-30T04:17:18.291Z,1.40
2018-06-30T04:17:51.385Z,1.30
2018-06-30T04:18:24.456Z,1.17
2018-06-30T04:19:01.876Z,1.05
2018-06-30T04:19:34.966Z,1.15
2018-06-30T04:20:08.379Z,1.40
2018-06-30T04:20:41.456Z,1.20
2018-06-30T04:21:14.551Z,1.50
2018-06-30T04:21:47.990Z,1.40
2018-06-30T04:22:21.083Z,1.40
2018-06-30T04:22:56.334Z,1.45
2018-06-30T04:23:29.425Z,1.70
2018-06-30T04:24:02.524Z,1.40
2018-06-30T04:24:35.828Z,1.40
2018-06-30T04:25:09.761Z,1.60
2018-06-30T04:25:42.882Z,1.80
2018-06-30T04:26:16.007Z,1.20
2018-06-30T04:26:49.110Z,1.40
2018-06-30T04:27:22.347Z,1.35
2018-06-30T04:27:55.455Z,1.30
2018-06-30T04:28:28.828Z,1.30
2018-06-30T04:29:02.205Z,1.50
2018-06-30T04:29:35.692Z,1.72
2018-06-30T04:30:08.857Z,1.47
2018-06-30T04:30:41.972Z,1.50
2018-06-30T04:31:15.115Z,1.40
2018-06-30T04:31:48.360Z,1.40
2018-06-30T04:32:21.858Z,1.30
2018-06-30T04:32:54.972Z,1.67
2018-06-30T04:33:28.224Z,1.47
2018-06-30T04:34:01.341Z,1.80
2018-06-30T04:34:34.592Z,1.30
2018-06-30T04:35:08.247Z,1.20
2018-06-30T04:35:41.366Z,1.50
2018-06-30T04:36:14.478Z,1.17
2018-06-30T04:36:47.605Z,1.40
2018-06-30T04:37:20.706Z,1.52
2018-06-30T04:37:53.795Z,1.50
2018-06-30T04:38:26.902Z,1.45
2018-06-30T04:39:00.031Z,1.47
2018-06-30T04:39:33.101Z,2.35
2018-06-30T04:40:06.365Z,2.40
2018-06-30T04:40:39.561Z,2.10
2018-06-30T04:41:12.723Z,1.40
2018-06-30T04:41:45.913Z,1.45
2018-06-30T04:42:19.360Z,1.40
2018-06-30T04:42:52.435Z,1.00
2018-06-30T04:43:25.561Z,1.10
2018-06-30T04:43:58.638Z,1.25
2018-06-30T04:44:31.711Z,1.92
2018-06-30T04:45:04.984Z,1.30
2018-06-30T04:45:38.143Z,1.32
2018-06-30T04:46:11.334Z,1.42
2018-06-30T04:46:44.513Z,1.30
2018-06-30T04:47:17.812Z,1.35
2018-06-30T04:47:50.896Z,1.62
2018-06-30T04:48:24.035Z,1.80
2018-06-30T04:48:57.110Z,1.80
2018-06-30T04:49:30.283Z,2.00
2018-06-30T04:50:03.589Z,1.77
2018-06-30T04:50:36.814Z,1.42
2018-06-30T04:51:10.552Z,1.55
2018-06-30T04:51:43.740Z,2.00
2018-06-30T04:52:16.865Z,1.85
2018-06-30T04:52:50.105Z,1.42
2018-06-30T04:53:23.265Z,1.62
2018-06-30T04:53:56.566Z,1.75
2018-06-30T04:54:29.675Z,1.60
2018-06-30T04:55:02.784Z,1.35
2018-06-30T04:55:35.874Z,1.25
2018-06-30T04:56:08.981Z,1.50
2018-06-30T04:56:42.355Z,1.25
2018-06-30T04:57:15.493Z,1.72
2018-06-30T04:57:48.593Z,1.60
2018-06-30T04:58:21.690Z,2.22
2018-06-30T04:58:54.796Z,2.50
2018-06-30T04:59:34.855Z,1.70
2018-06-30T05:00:07.982Z,1.65
2018-06-30T05:00:41.363Z,1.25
2018-06-30T05:01:14.583Z,1.42
2018-06-30T05:01:47.825Z,1.10
2018-06-30T05:02:20.924Z,1.20
2018-06-30T05:02:54.067Z,1.10
2018-06-30T05:03:27.186Z,1.20
2018-06-30T05:04:00.441Z,1.20
2018-06-30T05:04:33.616Z,1.20
2018-06-30T05:05:06.788Z,1.25
2018-06-30T05:05:39.872Z,1.60
2018-06-30T05:06:13.251Z,1.30
2018-06-30T05:06:47.048Z,1.42
2018-06-30T05:07:20.246Z,1.17
2018-06-30T05:07:53.584Z,1.00
2018-06-30T05:08:26.768Z,1.35
2018-06-30T05:08:59.955Z,1.32
2018-06-30T05:09:33.111Z,1.40
2018-06-30T05:10:06.204Z,1.50
2018-06-30T05:10:39.293Z,1.10
2018-06-30T05:11:12.860Z,1.30
2018-06-30T05:11:45.961Z,1.10
2018-06-30T05:12:19.320Z,1.05
2018-06-30T05:12:52.467Z,1.20
2018-06-30T05:13:25.661Z,1.05
2018-06-30T05:13:58.842Z,1.25
2018-06-30T05:14:31.923Z,1.42
2018-06-30T05:15:05.173Z,1.15
2018-06-30T05:15:38.400Z,1.45
2018-06-30T05:16:11.552Z,1.20
2018-06-30T05:16:44.623Z,1.10
2018-06-30T05:17:17.713Z,1.10
2018-06-30T05:17:50.832Z,1.30
2018-06-30T05:18:23.928Z,1.75
2018-06-30T05:18:57.122Z,1.47
2018-06-30T05:19:30.207Z,1.50
2018-06-30T05:20:04.052Z,1.40
2018-06-30T05:20:37.304Z,1.77
2018-06-30T05:21:10.610Z,1.82
2018-06-30T05:21:43.712Z,1.75
2018-06-30T05:22:17.031Z,1.95
2018-06-30T05:22:50.328Z,1.75
2018-06-30T05:23:23.515Z,1.72
2018-06-30T05:23:56.631Z,1.80
2018-06-30T05:24:29.731Z,1.20
2018-06-30T05:25:02.820Z,1.50
2018-06-30T05:25:35.906Z,1.50
2018-06-30T05:26:08.981Z,1.30
2018-06-30T05:26:42.248Z,1.40
2018-06-30T05:27:15.373Z,1.30
2018-06-30T05:27:48.622Z,1.40
2018-06-30T05:28:21.690Z,1.20
2018-06-30T05:28:54.982Z,1.37
2018-06-30T05:29:28.116Z,1.35
2018-06-30T05:30:01.346Z,1.72
2018-06-30T05:30:34.540Z,1.70
2018-06-30T05:31:08.503Z,1.72
2018-06-30T05:31:41.612Z,1.92
2018-06-30T05:32:14.737Z,1.55
2018-06-30T05:32:48.449Z,2.15
2018-06-30T05:33:21.587Z,1.22
2018-06-30T05:33:54.835Z,1.40
2018-06-30T05:34:28.009Z,1.40
2018-06-30T05:35:01.176Z,1.35
2018-06-30T05:35:34.370Z,1.52
2018-06-30T05:36:07.544Z,1.70
2018-06-30T05:36:40.668Z,1.30
2018-06-30T05:37:13.899Z,1.25
2018-06-30T05:37:47.312Z,1.52
2018-06-30T05:38:20.666Z,1.40
2018-06-30T05:38:53.791Z,1.20
2018-06-30T05:39:26.904Z,1.60
2018-06-30T05:40:00.030Z,1.52
2018-06-30T05:40:33.282Z,1.27
2018-06-30T05:41:06.771Z,1.50
2018-06-30T05:41:40.168Z,1.65
2018-06-30T05:42:13.729Z,1.65
2018-06-30T05:42:46.921Z,1.50
2018-06-30T05:43:20.067Z,1.92
2018-06-30T05:43:53.248Z,1.70
2018-06-30T05:44:26.562Z,1.62
2018-06-30T05:45:00.778Z,1.15
2018-06-30T05:45:34.918Z,1.52
2018-06-30T05:46:09.355Z,1.20
2018-06-30T05:46:43.390Z,1.10
2018-06-30T05:47:17.402Z,1.62
2018-06-30T05:47:53.407Z,1.67
2018-06-30T05:48:27.051Z,1.20
2018-06-30T05:49:02.210Z,1.42
2018-06-30T05:49:36.290Z,1.62
2018-06-30T05:50:10.046Z,1.35
2018-06-30T05:50:43.402Z,1.22
2018-06-30T05:51:16.909Z,1.20
2018-06-30T05:51:50.059Z,1.10
2018-06-30T05:52:23.346Z,1.32
2018-06-30T05:52:56.443Z,1.35
2018-06-30T05:53:29.888Z,1.45
2018-06-30T05:54:02.971Z,1.45
2018-06-30T05:54:36.060Z,1.40
2018-06-30T05:55:09.166Z,1.30
2018-06-30T05:55:42.267Z,1.25
2018-06-30T05:56:15.334Z,1.10
2018-06-30T05:56:48.426Z,1.65
2018-06-30T05:57:21.552Z,1.50
2018-06-30T05:57:54.699Z,1.05
2018-06-30T05:58:28.221Z,1.47
2018-06-30T05:59:01.310Z,1.10
2018-06-30T05:59:34.535Z,1.35
2018-06-30T06:00:07.712Z,1.70
2018-06-30T06:00:40.855Z,1.25
2018-06-30T06:01:14.082Z,1.27
2018-06-30T06:01:47.632Z,1.40
2018-06-30T06:02:21.058Z,0.93
2018-06-30T06:02:54.169Z,1.30
2018-06-30T06:03:27.706Z,1.60
2018-06-30T06:04:00.838Z,1.42
2018-06-30T06:04:33.967Z,1.50
2018-06-30T06:05:07.354Z,1.30
2018-06-30T06:05:41.057Z,1.30
2018-06-30T06:06:14.160Z,1.15
2018-06-30T06:06:47.874Z,1.20
2018-06-30T06:07:21.132Z,1.17
2018-06-30T06:07:54.509Z,1.15
2018-06-30T06:08:27.803Z,1.40
2018-06-30T06:09:00.917Z,1.10
2018-06-30T06:09:34.519Z,1.60
2018-06-30T06:10:07.678Z,1.22
2018-06-30T06:10:40.719Z,1.82
2018-06-30T06:11:13.818Z,1.87
2018-06-30T06:11:47.241Z,1.45
2018-06-30T06:12:20.343Z,1.82
2018-06-30T06:12:54.024Z,1.22
2018-06-30T06:13:27.318Z,1.45
2018-06-30T06:14:00.546Z,1.32
2018-06-30T06:14:34.077Z,1.65
2018-06-30T06:15:07.228Z,1.47
2018-06-30T06:15:40.335Z,1.20
2018-06-30T06:16:13.923Z,1.35
2018-06-30T06:16:47.068Z,1.52
2018-06-30T06:17:20.187Z,1.30
2018-06-30T06:17:53.512Z,1.30
2018-06-30T06:18:26.591Z,1.30
2018-06-30T06:18:59.707Z,1.17
2018-06-30T06:19:32.823Z,1.10
2018-06-30T06:20:06.487Z,1.57
2018-06-30T06:20:39.513Z,1.20
2018-06-30T06:21:12.809Z,1.30
2018-06-30T06:21:45.905Z,1.05
2018-06-30T06:22:19.287Z,1.30
2018-06-30T06:22:52.569Z,1.50
2018-06-30T06:23:25.852Z,1.20
2018-06-30T06:23:59.004Z,1.40
2018-06-30T06:24:32.104Z,1.20
2018-06-30T06:25:05.341Z,1.60
2018-06-30T06:25:38.441Z,1.72
2018-06-30T06:26:11.815Z,1.50
2018-06-30T06:26:44.892Z,2.30
2018-06-30T06:27:18.087Z,1.55
2018-06-30T06:27:51.218Z,1.20
2018-06-30T06:28:24.556Z,1.30
2018-06-30T06:28:57.716Z,1.30
2018-06-30T06:29:30.913Z,1.30
2018-06-30T06:30:04.663Z,1.37
2018-06-30T06:30:37.884Z,1.22
2018-06-30T06:31:11.064Z,1.52
2018-06-30T06:31:44.335Z,1.32
2018-06-30T06:32:17.612Z,1.47
2018-06-30T06:32:50.933Z,1.35
2018-06-30T06:33:24.212Z,1.20
2018-06-30T06:33:57.407Z,1.30
2018-06-30T06:34:30.507Z,1.20
2018-06-30T06:35:04.058Z,1.20
2018-06-30T06:35:37.162Z,1.50
2018-06-30T06:36:10.591Z,2.02
2018-06-30T06:36:43.686Z,1.87
2018-06-30T06:37:16.833Z,1.20
2018-06-30T06:37:49.993Z,1.52
2018-06-30T06:38:23.084Z,1.70
2018-06-30T06:38:56.363Z,1.10
2018-06-30T06:39:29.854Z,1.20
2018-06-30T06:40:03.802Z,1.77
2018-06-30T06:40:37.150Z,1.55
2018-06-30T06:41:10.555Z,1.42
2018-06-30T06:41:43.873Z,1.20
2018-06-30T06:42:16.899Z,2.00
2018-06-30T06:42:50.057Z,1.57
2018-06-30T06:43:23.340Z,1.50
2018-06-30T06:43:56.468Z,1.32
2018-06-30T06:44:29.736Z,1.75
2018-06-30T06:45:02.875Z,1.40
2018-06-30T06:45:36.407Z,1.05
2018-06-30T06:46:09.915Z,1.60
2018-06-30T06:46:43.029Z,1.57
2018-06-30T06:47:16.184Z,1.45
2018-06-30T06:47:49.372Z,1.90
2018-06-30T06:48:22.668Z,1.60
2018-06-30T06:48:55.883Z,1.95
2018-06-30T06:49:29.034Z,2.00
2018-06-30T06:50:02.131Z,1.40
2018-06-30T06:50:35.582Z,1.75
2018-06-30T06:51:08.766Z,1.70
2018-06-30T06:51:41.855Z,1.65
2018-06-30T06:52:15.131Z,1.77
2018-06-30T06:52:48.271Z,1.60
2018-06-30T06:53:21.606Z,1.70
2018-06-30T06:53:54.689Z,1.67
2018-06-30T06:54:27.867Z,1.15
2018-06-30T06:55:01.013Z,1.30
2018-06-30T06:55:34.153Z,1.40
2018-06-30T06:56:07.356Z,1.42
2018-06-30T06:56:40.455Z,1.47
2018-06-30T06:57:13.554Z,1.32
2018-06-30T06:57:47.011Z,1.42
2018-06-30T06:58:20.111Z,1.30
2018-06-30T06:58:53.573Z,1.50
2018-06-30T06:59:26.719Z,1.45
2018-06-30T06:59:59.899Z,1.55
2018-06-30T07:00:33.074Z,1.65
2018-06-30T07:01:06.208Z,1.30
2018-06-30T07:01:39.403Z,1.37
2018-06-30T07:02:12.632Z,1.45
2018-06-30T07:02:45.923Z,1.50
2018-06-30T07:03:19.016Z,1.20
2018-06-30T07:03:52.139Z,1.30
2018-06-30T07:04:25.363Z,1.00
2018-06-30T07:04:58.797Z,1.07
2018-06-30T07:05:32.007Z,1.60
2018-06-30T07:06:05.492Z,1.25
2018-06-30T07:06:38.581Z,1.70
2018-06-30T07:07:11.876Z,1.60
2018-06-30T07:07:45.020Z,2.00
2018-06-30T07:08:18.120Z,1.27
2018-06-30T07:08:51.338Z,1.95
2018-06-30T07:09:24.439Z,2.33
2018-06-30T07:09:57.752Z,1.52
2018-06-30T07:10:30.920Z,1.92
2018-06-30T07:11:04.758Z,1.92
2018-06-30T07:11:38.199Z,1.67
2018-06-30T07:12:11.502Z,2.10
2018-06-30T07:12:45.297Z,1.70
2018-06-30T07:13:19.080Z,1.40
2018-06-30T07:13:52.166Z,1.55
2018-06-30T07:14:25.343Z,1.70
2018-06-30T07:14:58.454Z,1.30
2018-06-30T07:15:31.562Z,1.60
2018-06-30T07:16:04.843Z,1.32
2018-06-30T07:16:38.007Z,1.45
2018-06-30T07:17:11.220Z,1.27
2018-06-30T07:17:44.375Z,1.45
2018-06-30T07:18:17.589Z,1.82
2018-06-30T07:18:51.002Z,2.00
2018-06-30T07:19:24.233Z,1.65
2018-06-30T07:19:57.408Z,1.32
2018-06-30T07:20:30.492Z,1.30
2018-06-30T07:21:04.400Z,1.80
2018-06-30T07:21:38.021Z,1.50
2018-06-30T07:22:11.132Z,1.85
2018-06-30T07:22:44.553Z,1.65
2018-06-30T07:23:17.706Z,1.27
2018-06-30T07:23:50.916Z,1.45
2018-06-30T07:24:24.227Z,1.40